createdAt,value
2018-07-06T00:00:27.987Z,99779.00
2018-07-06T00:03:14.884Z,99786.00
2018-07-06T00:06:01.736Z,99778.00
2018-07-06T00:08:49.040Z,99784.00
2018-07-06T00:11:36.352Z,99781.00
2018-07-06T00:14:23.612Z,99789.00
2018-07-06T00:17:10.672Z,99786.00
2018-07-06T00:19:57.801Z,99780.00
2018-07-06T00:22:45.526Z,99789.00
2018-07-06T00:25:32.512Z,99786.00
2018-07-06T00:28:19.669Z,99782.00
2018-07-06T00:31:08.118Z,99780.00
2018-07-06T00:33:55.349Z,99784.00
2018-07-06T00:36:42.701Z,99780.00
2018-07-06T00:39:29.659Z,99782.00
2018-07-06T00:42:16.725Z,99786.00
2018-07-06T00:45:03.929Z,99787.00
2018-07-06T00:47:51.795Z,99790.00
2018-07-06T00:50:38.908Z,99795.00
2018-07-06T00:53:26.159Z,99792.00
2018-07-06T00:56:13.380Z,99795.00
2018-07-06T00:59:00.535Z,99792.00
2018-07-06T01:01:41.849Z,99798.00
2018-07-06T01:04:28.804Z,99798.00
2018-07-06T01:07:15.728Z,99798.00
2018-07-06T01:10:02.912Z,99800.00
2018-07-06T01:12:55.594Z,99800.00
2018-07-06T01:15:42.716Z,99800.00
2018-07-06T01:18:29.848Z,99794.00
2018-07-06T01:21:17.112Z,99800.00
2018-07-06T01:23:58.371Z,99796.00
2018-07-06T01:26:45.456Z,99800.00
2018-07-06T01:29:32.375Z,99800.00
2018-07-06T01:32:19.365Z,99797.00
2018-07-06T01:35:06.774Z,99801.00
2018-07-06T01:37:53.922Z,99802.00
2018-07-06T01:40:41.176Z,99802.00
2018-07-06T01:43:28.395Z,99795.00
2018-07-06T01:46:15.233Z,99804.00
2018-07-06T01:49:02.544Z,99805.00
2018-07-06T01:51:49.780Z,99798.00
2018-07-06T01:54:36.761Z,99793.00
2018-07-06T01:57:24.035Z,99799.00
2018-07-06T02:00:11.230Z,99795.00
2018-07-06T02:02:58.484Z,99799.00
2018-07-06T02:05:46.012Z,99800.00
2018-07-06T02:08:33.446Z,99799.00
2018-07-06T02:11:20.623Z,99798.00
2018-07-06T02:14:07.803Z,99804.00
2018-07-06T02:16:55.084Z,99806.00
2018-07-06T02:19:42.315Z,99801.00
2018-07-06T02:22:29.512Z,99805.00
2018-07-06T02:25:16.688Z,99804.00
2018-07-06T02:28:03.944Z,99806.00
2018-07-06T02:30:45.152Z,99808.00
2018-07-06T02:33:31.900Z,99815.00
2018-07-06T02:36:18.992Z,99811.00
2018-07-06T02:39:06.220Z,99812.00
2018-07-06T02:41:53.435Z,99815.00
2018-07-06T02:44:40.277Z,99813.00
2018-07-06T02:47:27.810Z,99821.00
2018-07-06T02:50:15.206Z,99816.00
2018-07-06T02:53:02.592Z,99823.00
2018-07-06T02:55:49.868Z,99820.00
2018-07-06T02:58:37.042Z,99818.00
2018-07-06T03:01:24.295Z,99814.00
2018-07-06T03:04:11.651Z,99813.00
2018-07-06T03:06:58.866Z,99822.00
2018-07-06T03:09:46.031Z,99820.00
2018-07-06T03:12:33.173Z,99817.00
2018-07-06T03:15:20.422Z,99824.00
2018-07-06T03:18:07.771Z,99828.00
2018-07-06T03:20:54.931Z,99829.00
2018-07-06T03:23:42.156Z,99837.00
2018-07-06T03:26:29.211Z,99833.00
2018-07-06T03:29:16.835Z,99830.00
2018-07-06T03:32:03.895Z,99835.00
2018-07-06T03:34:52.364Z,99843.00
2018-07-06T03:37:39.600Z,99842.00
2018-07-06T03:40:26.439Z,99852.00
2018-07-06T03:43:13.453Z,99849.00
2018-07-06T03:46:00.846Z,99843.00
2018-07-06T03:48:47.764Z,99849.00
2018-07-06T03:51:34.669Z,99848.00
2018-07-06T03:54:21.661Z,99846.00
2018-07-06T03:57:08.837Z,99846.00
2018-07-06T03:59:56.091Z,99848.00
2018-07-06T04:02:43.272Z,99850.00
2018-07-06T04:05:30.769Z,99851.00
2018-07-06T04:08:17.840Z,99854.00
2018-07-06T04:11:04.988Z,99858.00
2018-07-06T04:13:52.473Z,99866.00
2018-07-06T04:16:39.550Z,99861.00
2018-07-06T04:19:26.668Z,99864.00
2018-07-06T04:22:13.807Z,99871.00
2018-07-06T04:25:00.988Z,99877.00
2018-07-06T04:27:48.312Z,99881.00
2018-07-06T04:30:35.473Z,99882.00
2018-07-06T04:33:22.733Z,99884.00
2018-07-06T04:36:09.904Z,99883.00
2018-07-06T04:38:57.201Z,99883.00
2018-07-06T04:41:44.624Z,99892.00
2018-07-06T04:44:31.615Z,99885.00
2018-07-06T04:47:18.428Z,99889.00
2018-07-06T04:50:05.384Z,99887.00
2018-07-06T04:52:52.688Z,99890.00
2018-07-06T04:55:39.884Z,99883.00
2018-07-06T04:58:26.836Z,99889.00
2018-07-06T05:01:14.191Z,99890.00
2018-07-06T05:03:55.295Z,99887.00
2018-07-06T05:06:42.247Z,99892.00
2018-07-06T05:09:29.476Z,99905.00
2018-07-06T05:12:16.797Z,99900.00
2018-07-06T05:15:03.905Z,99902.00
2018-07-06T05:17:50.862Z,99910.00
2018-07-06T05:20:39.161Z,99910.00
2018-07-06T05:23:26.428Z,99902.00
2018-07-06T05:26:13.804Z,99899.00
2018-07-06T05:29:00.984Z,99911.00
2018-07-06T05:31:48.119Z,99900.00
2018-07-06T05:34:29.172Z,99905.00
2018-07-06T05:37:16.281Z,99909.00
2018-07-06T05:40:03.511Z,99915.00
2018-07-06T05:42:50.849Z,99922.00
2018-07-06T05:45:38.109Z,99914.00
2018-07-06T05:48:25.103Z,99907.00
2018-07-06T05:51:12.009Z,99912.00
2018-07-06T05:53:58.917Z,99913.00
2018-07-06T05:56:46.220Z,99914.00
2018-07-06T05:59:33.331Z,99913.00
2018-07-06T06:02:20.464Z,99923.00
2018-07-06T06:05:08.042Z,99923.00
2018-07-06T06:07:36.463Z,99927.00
2018-07-06T06:10:06.444Z,99929.00
2018-07-06T06:12:36.416Z,99930.00
2018-07-06T06:15:06.392Z,99925.00
2018-07-06T06:17:36.419Z,99926.00
2018-07-06T06:20:11.166Z,99926.00
2018-07-06T06:22:40.900Z,99933.00
2018-07-06T06:25:10.896Z,99921.00
2018-07-06T06:27:40.879Z,99937.00
2018-07-06T06:30:10.852Z,99942.00
2018-07-06T06:32:40.827Z,99946.00
2018-07-06T06:35:10.879Z,99943.00
2018-07-06T06:37:41.236Z,99933.00
2018-07-06T06:40:11.299Z,99937.00
2018-07-06T06:42:41.285Z,99940.00
2018-07-06T06:45:11.254Z,99942.00
2018-07-06T06:47:41.243Z,99946.00
2018-07-06T06:50:11.219Z,99944.00
2018-07-06T06:52:41.191Z,99946.00
2018-07-06T06:55:11.204Z,99939.00
2018-07-06T06:57:41.188Z,99942.00
2018-07-06T07:00:11.149Z,99942.00
2018-07-06T07:02:40.968Z,99940.00
2018-07-06T07:05:10.809Z,99939.00
2018-07-06T07:07:40.791Z,99932.00
2018-07-06T07:10:10.857Z,99932.00
2018-07-06T07:12:40.869Z,99926.00
2018-07-06T07:15:10.832Z,99926.00
2018-07-06T07:17:40.832Z,99929.00
2018-07-06T07:20:10.891Z,99929.00
2018-07-06T07:22:40.915Z,99935.00
2018-07-06T07:25:10.869Z,99937.00
2018-07-06T07:27:40.600Z,99931.00
2018-07-06T07:30:11.431Z,99940.00
2018-07-06T07:32:41.356Z,99934.00
2018-07-06T07:35:11.332Z,99929.00
2018-07-06T07:37:41.307Z,99928.00
2018-07-06T07:40:11.287Z,99925.00
2018-07-06T07:42:41.344Z,99939.00
2018-07-06T07:45:11.424Z,99933.00
2018-07-06T07:47:41.405Z,99936.00
2018-07-06T07:50:11.380Z,99937.00
2018-07-06T07:54:56.242Z,99941.00
2018-07-06T07:57:26.217Z,99942.00
2018-07-06T07:59:56.684Z,99945.00
2018-07-06T08:02:27.848Z,99949.00
2018-07-06T08:04:57.832Z,99949.00
2018-07-06T08:07:27.817Z,99949.00
2018-07-06T08:09:58.094Z,99954.00
2018-07-06T08:12:28.480Z,99958.00
2018-07-06T08:14:58.475Z,99954.00
2018-07-06T08:17:28.551Z,99954.00
2018-07-06T08:19:58.536Z,99958.00
2018-07-06T08:22:28.875Z,99968.00
2018-07-06T08:24:58.843Z,99959.00
2018-07-06T08:27:28.800Z,99976.00
2018-07-06T08:29:58.768Z,99976.00
2018-07-06T08:32:29.064Z,99986.00
2018-07-06T08:35:15.913Z,99981.00
2018-07-06T08:37:59.263Z,99983.00
2018-07-06T08:40:29.728Z,99983.00
2018-07-06T08:43:00.676Z,99987.00
2018-07-06T08:45:31.204Z,99987.00
2018-07-06T08:48:01.190Z,99988.00
2018-07-06T08:50:31.141Z,99987.00
2018-07-06T08:53:01.155Z,99983.00
2018-07-06T08:55:31.093Z,99989.00
2018-07-06T08:58:01.068Z,99991.00
2018-07-06T09:00:31.054Z,99987.00
2018-07-06T09:03:01.020Z,99996.00
2018-07-06T09:05:31.099Z,99998.00
2018-07-06T09:08:01.067Z,100001.00
2018-07-06T09:10:31.128Z,100004.00
2018-07-06T09:13:01.232Z,100006.00
2018-07-06T09:15:31.181Z,100004.00
2018-07-06T09:18:01.277Z,100003.00
2018-07-06T09:20:31.280Z,100010.00
2018-07-06T09:23:01.256Z,100010.00
2018-07-06T09:25:31.352Z,100010.00
2018-07-06T09:28:01.208Z,100012.00
2018-07-06T09:30:32.496Z,100014.00
2018-07-06T09:33:02.588Z,100010.00
2018-07-06T09:35:32.553Z,100012.00
2018-07-06T09:38:02.524Z,100010.00
2018-07-06T09:40:32.504Z,100007.00
2018-07-06T09:43:02.516Z,100008.00
2018-07-06T09:45:32.487Z,100004.00
2018-07-06T09:48:02.455Z,100008.00
2018-07-06T09:50:32.416Z,100004.00
2018-07-06T09:53:02.386Z,100006.00
2018-07-06T09:55:32.364Z,100000.00
2018-07-06T09:58:02.409Z,100004.00
2018-07-06T10:00:38.024Z,100001.00
2018-07-06T10:03:08.116Z,100002.00
2018-07-06T10:05:38.126Z,100005.00
2018-07-06T10:08:08.077Z,100005.00
2018-07-06T10:10:39.127Z,100002.00
2018-07-06T10:13:09.697Z,99995.00
2018-07-06T10:15:40.391Z,99999.00
2018-07-06T10:18:11.129Z,99995.00
2018-07-06T10:20:41.108Z,100001.00
2018-07-06T10:23:11.080Z,100005.00
2018-07-06T10:25:41.104Z,99998.00
2018-07-06T10:29:25.367Z,100000.00
2018-07-06T10:32:31.256Z,100008.00
2018-07-06T10:35:01.348Z,100000.00
2018-07-06T10:37:31.484Z,100000.00
2018-07-06T10:40:01.564Z,100004.00
2018-07-06T10:42:32.036Z,100010.00
2018-07-06T10:45:02.042Z,100005.00
2018-07-06T10:47:31.996Z,100001.00
2018-07-06T10:50:01.967Z,100000.00
2018-07-06T10:52:32.456Z,99999.00
2018-07-06T10:55:02.419Z,99993.00
2018-07-06T10:57:32.413Z,100000.00
2018-07-06T11:00:02.368Z,99999.00
2018-07-06T11:02:32.866Z,99995.00
2018-07-06T11:05:02.904Z,99997.00
2018-07-06T11:07:32.874Z,99999.00
2018-07-06T11:10:02.931Z,100003.00
2018-07-06T11:12:33.032Z,99999.00
2018-07-06T11:15:02.994Z,100004.00
2018-07-06T11:17:32.968Z,99994.00
2018-07-06T11:20:03.087Z,99999.00
2018-07-06T11:22:33.417Z,99990.00
2018-07-06T11:25:03.433Z,99987.00
2018-07-06T11:27:33.448Z,99982.00
2018-07-06T11:30:03.452Z,99995.00
2018-07-06T11:32:33.643Z,100000.00
2018-07-06T11:35:03.682Z,99999.00
2018-07-06T11:37:33.704Z,99992.00
2018-07-06T11:40:03.646Z,99998.00
2018-07-06T11:42:33.834Z,100000.00
2018-07-06T11:45:03.956Z,99996.00
2018-07-06T11:47:33.671Z,99998.00
2018-07-06T11:50:03.545Z,99989.00
2018-07-06T11:52:33.726Z,99990.00
2018-07-06T11:55:03.748Z,99998.00
2018-07-06T11:57:33.752Z,99999.00
2018-07-06T12:00:03.977Z,99990.00
2018-07-06T12:02:34.069Z,99995.00
2018-07-06T12:05:04.080Z,99984.00
2018-07-06T12:07:34.051Z,99988.00
2018-07-06T12:10:04.000Z,99987.00
2018-07-06T12:12:34.296Z,99984.00
2018-07-06T12:15:04.322Z,99989.00
2018-07-06T12:17:34.464Z,99989.00
2018-07-06T12:20:04.535Z,99988.00
2018-07-06T12:22:34.609Z,99990.00
2018-07-06T12:25:04.804Z,99991.00
2018-07-06T12:27:34.792Z,99999.00
2018-07-06T12:30:05.064Z,99992.00
2018-07-06T12:32:35.116Z,99994.00
2018-07-06T12:35:05.120Z,99991.00
2018-07-06T12:37:35.168Z,99994.00
2018-07-06T12:40:05.134Z,99991.00
2018-07-06T12:42:35.101Z,99993.00
2018-07-06T12:45:05.096Z,99997.00
2018-07-06T12:47:35.068Z,99995.00
2018-07-06T12:50:05.524Z,99991.00
2018-07-06T12:52:36.039Z,99986.00
2018-07-06T12:55:06.158Z,99994.00
2018-07-06T12:57:36.129Z,99986.00
2018-07-06T13:00:06.228Z,99991.00
2018-07-06T13:02:36.700Z,99985.00
2018-07-06T13:05:07.042Z,99991.00
2018-07-06T13:07:37.496Z,99989.00
2018-07-06T13:10:08.366Z,99989.00
2018-07-06T13:12:38.368Z,99985.00
2018-07-06T13:15:08.333Z,99990.00
2018-07-06T13:17:38.312Z,99984.00
2018-07-06T13:20:08.292Z,99974.00
2018-07-06T13:22:38.264Z,99971.00
2018-07-06T13:25:08.248Z,99983.00
2018-07-06T13:27:38.301Z,99982.00
2018-07-06T13:30:08.432Z,99986.00
2018-07-06T13:32:38.476Z,99987.00
2018-07-06T13:35:09.181Z,99982.00
2018-07-06T13:37:39.488Z,99985.00
2018-07-06T13:40:09.739Z,99984.00
2018-07-06T13:42:39.969Z,99980.00
2018-07-06T13:45:10.642Z,99979.00
2018-07-06T13:47:40.629Z,99984.00
2018-07-06T13:50:10.600Z,99983.00
2018-07-06T13:52:41.071Z,99985.00
2018-07-06T13:55:11.048Z,99983.00
2018-07-06T13:57:41.204Z,99983.00
2018-07-06T14:00:11.180Z,99989.00
2018-07-06T14:02:41.143Z,99982.00
2018-07-06T14:05:11.100Z,99959.00
2018-07-06T14:07:41.064Z,99972.00
2018-07-06T14:10:10.775Z,99973.00
2018-07-06T14:12:40.633Z,99975.00
2018-07-06T14:15:11.087Z,99971.00
2018-07-06T14:17:41.076Z,99978.00
2018-07-06T14:20:11.044Z,99982.00
2018-07-06T14:22:41.043Z,99967.00
2018-07-06T14:25:10.799Z,99975.00
2018-07-06T14:27:40.657Z,99964.00
2018-07-06T14:30:10.645Z,99964.00
2018-07-06T14:32:41.080Z,99956.00
2018-07-06T14:35:11.062Z,99959.00
2018-07-06T14:37:41.029Z,99972.00
2018-07-06T14:40:10.988Z,99974.00
2018-07-06T14:42:41.071Z,99972.00
2018-07-06T14:45:11.159Z,99974.00
2018-07-06T14:47:41.135Z,99971.00
2018-07-06T14:50:11.080Z,99969.00
2018-07-06T14:52:41.083Z,99980.00
2018-07-06T14:55:11.088Z,99962.00
2018-07-06T14:57:41.053Z,99964.00
2018-07-06T15:00:11.016Z,99971.00
2018-07-06T15:02:41.128Z,99974.00
2018-07-06T15:05:11.096Z,99970.00
2018-07-06T15:07:41.156Z,99981.00
2018-07-06T15:10:11.597Z,99969.00
2018-07-06T15:12:41.610Z,99974.00
2018-07-06T15:15:11.520Z,99979.00
2018-07-06T15:17:41.482Z,99977.00
2018-07-06T15:20:11.436Z,99974.00
2018-07-06T15:22:41.391Z,99978.00
2018-07-06T15:25:11.490Z,99975.00
2018-07-06T15:27:48.128Z,99977.00
2018-07-06T15:30:18.077Z,99964.00
2018-07-06T15:32:48.042Z,99973.00
2018-07-06T15:35:17.992Z,99980.00
2018-07-06T15:37:48.100Z,99982.00
2018-07-06T15:40:18.088Z,99983.00
2018-07-06T15:42:48.076Z,99986.00
2018-07-06T15:45:18.041Z,99980.00
2018-07-06T15:47:48.028Z,99983.00
2018-07-06T15:50:18.100Z,99977.00
2018-07-06T15:52:48.069Z,99977.00
2018-07-06T15:55:18.041Z,99986.00
2018-07-06T15:57:54.584Z,99982.00
2018-07-06T16:00:24.544Z,99980.00
2018-07-06T16:02:54.504Z,99976.00
2018-07-06T16:05:24.648Z,99980.00
2018-07-06T16:07:54.604Z,99981.00
2018-07-06T16:10:24.669Z,99984.00
2018-07-06T16:12:54.700Z,99982.00
2018-07-06T16:15:24.775Z,99983.00
2018-07-06T16:17:54.743Z,99973.00
2018-07-06T16:20:24.752Z,99973.00
2018-07-06T16:22:54.866Z,99978.00
2018-07-06T16:25:24.850Z,99974.00
2018-07-06T16:27:54.858Z,99973.00
2018-07-06T16:30:25.004Z,99970.00
2018-07-06T16:32:55.044Z,99983.00
2018-07-06T16:35:25.020Z,99987.00
2018-07-06T16:37:54.737Z,99977.00
2018-07-06T16:40:24.860Z,99987.00
2018-07-06T16:42:54.883Z,99988.00
2018-07-06T16:45:24.884Z,99981.00
2018-07-06T16:47:54.644Z,99985.00
2018-07-06T16:50:24.577Z,99989.00
2018-07-06T16:52:54.552Z,99994.00
2018-07-06T16:55:24.520Z,99993.00
2018-07-06T16:57:54.555Z,99995.00
2018-07-06T17:00:24.516Z,100002.00
2018-07-06T17:02:54.471Z,99997.00
2018-07-06T17:05:24.468Z,99999.00
2018-07-06T17:07:54.541Z,100002.00
2018-07-06T17:10:24.533Z,100002.00
2018-07-06T17:12:54.504Z,100015.00
2018-07-06T17:15:24.480Z,100012.00
2018-07-06T17:17:54.451Z,100024.00
2018-07-06T17:20:24.447Z,100020.00
2018-07-06T17:22:54.523Z,100024.00
2018-07-06T17:25:24.331Z,100027.00
2018-07-06T17:27:54.200Z,100033.00
2018-07-06T17:30:24.299Z,100031.00
2018-07-06T17:32:54.298Z,100033.00
2018-07-06T17:35:24.241Z,100048.00
2018-07-06T17:37:54.569Z,100054.00
2018-07-06T17:40:24.544Z,100055.00
2018-07-06T17:42:54.515Z,100064.00
2018-07-06T17:45:24.493Z,100062.00
2018-07-06T17:47:54.500Z,100060.00
2018-07-06T17:50:24.488Z,100060.00
2018-07-06T17:52:54.823Z,100065.00
2018-07-06T17:55:24.795Z,100061.00
2018-07-06T17:57:54.766Z,100066.00
2018-07-06T18:00:24.765Z,100067.00
2018-07-06T18:02:54.719Z,100074.00
2018-07-06T18:05:24.792Z,100071.00
2018-07-06T18:07:54.759Z,100079.00
2018-07-06T18:10:24.824Z,100078.00
2018-07-06T18:12:55.120Z,100077.00
2018-07-06T18:15:25.113Z,100083.00
2018-07-06T18:17:55.100Z,100087.00
2018-07-06T18:20:25.308Z,100093.00
2018-07-06T18:22:55.411Z,100091.00
2018-07-06T18:25:25.401Z,100093.00
2018-07-06T18:27:55.443Z,100096.00
2018-07-06T18:30:25.428Z,100099.00
2018-07-06T18:32:55.439Z,100101.00
2018-07-06T18:35:25.491Z,100106.00
2018-07-06T18:37:55.456Z,100112.00
2018-07-06T18:40:25.432Z,100112.00
2018-07-06T18:42:55.396Z,100114.00
2018-07-06T18:45:25.469Z,100123.00
2018-07-06T18:47:55.439Z,100124.00
2018-07-06T18:50:25.656Z,100133.00
2018-07-06T18:52:55.661Z,100134.00
2018-07-06T18:55:25.647Z,100142.00
2018-07-06T18:57:55.624Z,100148.00
2018-07-06T19:00:25.667Z,100144.00
2018-07-06T19:02:55.580Z,100145.00
2018-07-06T19:05:25.572Z,100148.00
2018-07-06T19:07:56.007Z,100153.00
2018-07-06T19:10:26.140Z,100159.00
2018-07-06T19:12:56.096Z,100162.00
2018-07-06T19:15:26.240Z,100165.00
2018-07-06T19:17:56.208Z,100165.00
2018-07-06T19:20:26.228Z,100173.00
2018-07-06T19:22:56.292Z,100173.00
2018-07-06T19:25:26.264Z,100177.00
2018-07-06T19:27:56.290Z,100176.00
2018-07-06T19:30:26.371Z,100182.00
2018-07-06T19:32:56.471Z,100186.00
2018-07-06T19:35:26.476Z,100188.00
2018-07-06T19:37:56.439Z,100194.00
2018-07-06T19:40:26.548Z,100197.00
2018-07-06T19:42:56.519Z,100200.00
2018-07-06T19:45:26.571Z,100214.00
2018-07-06T19:47:56.545Z,100218.00
2018-07-06T19:50:26.573Z,100226.00
2018-07-06T19:52:56.535Z,100230.00
2018-07-06T19:55:26.523Z,100229.00
2018-07-06T19:57:56.626Z,100235.00
2018-07-06T20:00:26.816Z,100233.00
2018-07-06T20:02:56.862Z,100242.00
2018-07-06T20:05:26.798Z,100242.00
2018-07-06T20:07:56.768Z,100247.00
2018-07-06T20:10:26.819Z,100252.00
2018-07-06T20:12:56.852Z,100250.00
2018-07-06T20:15:26.906Z,100256.00
2018-07-06T20:17:56.924Z,100267.00
2018-07-06T20:20:26.921Z,100269.00
2018-07-06T20:22:56.914Z,100274.00
2018-07-06T20:25:26.868Z,100273.00
2018-07-06T20:27:56.838Z,100276.00
2018-07-06T20:30:26.851Z,100276.00
2018-07-06T20:32:56.823Z,100284.00
2018-07-06T20:35:26.800Z,100288.00
2018-07-06T20:37:56.774Z,100285.00
2018-07-06T20:40:26.935Z,100295.00
2018-07-06T20:42:57.039Z,100296.00
2018-07-06T20:45:26.996Z,100308.00
2018-07-06T20:47:56.982Z,100316.00
2018-07-06T20:50:26.951Z,100316.00
2018-07-06T20:52:56.916Z,100318.00
2018-07-06T20:55:26.889Z,100315.00
2018-07-06T20:57:56.862Z,100320.00
2018-07-06T21:00:27.185Z,100320.00
2018-07-06T21:02:57.720Z,100322.00
2018-07-06T21:05:27.661Z,100328.00
2018-07-06T21:07:57.672Z,100329.00
2018-07-06T21:10:27.725Z,100334.00
2018-07-06T21:12:57.667Z,100330.00
2018-07-06T21:15:27.656Z,100334.00
2018-07-06T21:17:57.642Z,100340.00
2018-07-06T21:20:27.647Z,100339.00
2018-07-06T21:22:57.608Z,100342.00
2018-07-06T21:25:27.559Z,100345.00
2018-07-06T21:27:57.532Z,100341.00
2018-07-06T21:30:27.505Z,100338.00
2018-07-06T21:32:57.476Z,100340.00
2018-07-06T21:35:27.424Z,100339.00
2018-07-06T21:37:57.392Z,100337.00
2018-07-06T21:40:27.384Z,100338.00
2018-07-06T21:42:57.352Z,100337.00
2018-07-06T21:45:27.304Z,100342.00
2018-07-06T21:47:57.408Z,100345.00
2018-07-06T21:50:27.476Z,100355.00
2018-07-06T21:52:57.444Z,100351.00
2018-07-06T21:55:27.462Z,100358.00
2018-07-06T21:57:57.389Z,100360.00
2018-07-06T22:00:35.683Z,100359.00
2018-07-06T22:03:05.984Z,100362.00
2018-07-06T22:05:36.085Z,100359.00
2018-07-06T22:08:06.918Z,100366.00
2018-07-06T22:10:39.233Z,100364.00
2018-07-06T22:13:09.809Z,100367.00
2018-07-06T22:15:43.988Z,100364.00
2018-07-06T22:18:15.448Z,100366.00
2018-07-06T22:20:46.251Z,100366.00
2018-07-06T22:23:16.642Z,100366.00
2018-07-06T22:25:46.706Z,100366.00
2018-07-06T22:28:16.668Z,100367.00
2018-07-06T22:30:46.625Z,100374.00
2018-07-06T22:33:16.606Z,100378.00
2018-07-06T22:35:46.564Z,100373.00
2018-07-06T22:38:16.544Z,100374.00
2018-07-06T22:40:46.512Z,100377.00
2018-07-06T22:43:16.552Z,100381.00
2018-07-06T22:45:46.725Z,100378.00
2018-07-06T22:48:16.691Z,100379.00
2018-07-06T22:50:46.640Z,100380.00
2018-07-06T22:53:16.600Z,100381.00
2018-07-06T22:55:46.557Z,100376.00
2018-07-06T22:58:16.533Z,100382.00
2018-07-06T23:00:46.497Z,100385.00
2018-07-06T23:03:16.480Z,100381.00
2018-07-06T23:05:46.448Z,100381.00
2018-07-06T23:08:16.420Z,100380.00
2018-07-06T23:10:46.392Z,100379.00
2018-07-06T23:13:16.278Z,100377.00
2018-07-06T23:15:46.119Z,100378.00
2018-07-06T23:18:16.198Z,100379.00
2018-07-06T23:20:46.263Z,100381.00
2018-07-06T23:23:17.055Z,100384.00
2018-07-06T23:25:48.119Z,100383.00
2018-07-06T23:28:18.332Z,100385.00
2018-07-06T23:30:48.303Z,100382.00
2018-07-06T23:33:18.273Z,100392.00
2018-07-06T23:35:48.251Z,100390.00
2018-07-06T23:38:18.311Z,100392.00
2018-07-06T23:40:48.241Z,100386.00
2018-07-06T23:43:18.208Z,100390.00
2018-07-06T23:45:48.192Z,100390.00
2018-07-06T23:48:18.160Z,100396.00
2018-07-06T23:50:48.147Z,100402.00
2018-07-06T23:53:18.108Z,100396.00
2018-07-06T23:55:48.097Z,100400.00
2018-07-06T23:58:24.872Z,100397.00
